Time;durP1;ratioP1;P1;durP2;ratioP2;P2;SDS_P1;SDS_P2;PMS_P1;PMS_P2;Temp;Humidity;BMP_temperature;BMP_pressure;BME280_temperature;BME280_humidity;BME280_pressure;Samples;Min_cycle;Max_cycle;Signal;HPM_P1;HPM_P2
2022/01/17 00:01:08;;;;;;;27.02;16.65;;;7.20;99.90;;;;;;5049446;28;20024;-60
2022/01/17 00:03:34;;;;;;;27.23;15.75;;;7.30;99.90;;;;;;5054955;28;20532;-60
2022/01/17 00:06:00;;;;;;;22.17;14.93;;;7.20;99.90;;;;;;5054742;28;20080;-61
2022/01/17 00:08:26;;;;;;;24.55;14.65;;;7.20;99.90;;;;;;5052069;28;20021;-61
2022/01/17 00:10:51;;;;;;;26.92;14.27;;;7.30;99.90;;;;;;5053888;28;20023;-60
2022/01/17 00:13:28;;;;;;;21.23;13.68;;;7.30;99.90;;;;;;5052635;28;20052;-60
2022/01/17 00:16:18;;;;;;;19.73;13.30;;;7.30;99.90;;;;;;5055711;28;20021;-61
2022/01/17 00:21:13;;;;;;;23.15;12.88;;;7.20;99.90;;;;;;5056676;28;20500;-61
2022/01/17 00:23:39;;;;;;;24.48;12.93;;;7.20;99.90;;;;;;5054568;28;20028;-60
2022/01/17 00:26:05;;;;;;;22.90;12.15;;;7.30;99.90;;;;;;5051972;28;20025;-60
2022/01/17 00:28:31;;;;;;;22.40;11.57;;;7.30;99.90;;;;;;5049235;28;20441;-61
2022/01/17 00:30:59;;;;;;;21.20;12.73;;;7.30;99.90;;;;;;5051613;28;20404;-60
2022/01/17 00:33:24;;;;;;;23.75;12.93;;;7.30;99.90;;;;;;5057879;28;20021;-61
2022/01/17 00:35:50;;;;;;;22.00;12.10;;;7.20;99.90;;;;;;5054913;28;20029;-60
2022/01/17 00:38:15;;;;;;;23.45;11.77;;;7.20;99.90;;;;;;5055251;28;20033;-60
2022/01/17 00:40:42;;;;;;;19.38;12.25;;;7.20;99.90;;;;;;5051911;28;20025;-60
2022/01/17 00:43:08;;;;;;;20.20;12.13;;;7.20;99.90;;;;;;5056239;28;20151;-60
2022/01/17 00:45:37;;;;;;;24.50;13.43;;;7.20;99.90;;;;;;5057066;28;20452;-60
2022/01/17 00:48:03;;;;;;;20.23;12.10;;;7.20;99.90;;;;;;5051532;28;20024;-60
2022/01/17 00:50:31;;;;;;;26.48;12.82;;;7.20;99.90;;;;;;5057191;28;20159;-60
2022/01/17 00:53:01;;;;;;;20.50;11.38;;;7.20;99.90;;;;;;5056800;28;20373;-60
2022/01/17 00:55:26;;;;;;;17.77;11.25;;;7.20;99.90;;;;;;5060783;28;20047;-61
2022/01/17 00:57:52;;;;;;;18.45;10.38;;;7.20;99.90;;;;;;5032181;28;20480;-60
2022/01/17 01:00:17;;;;;;;15.90;9.57;;;7.20;99.90;;;;;;5051365;28;20066;-61
2022/01/17 01:02:43;;;;;;;18.45;9.45;;;7.20;99.90;;;;;;5056822;28;20106;-60
2022/01/17 01:05:09;;;;;;;18.63;9.57;;;7.20;99.90;;;;;;5062326;28;20025;-60
2022/01/17 01:07:34;;;;;;;17.75;9.48;;;7.20;99.90;;;;;;5053982;28;20056;-61
2022/01/17 01:10:06;;;;;;;17.27;9.50;;;7.30;99.90;;;;;;5051369;28;20473;-61
2022/01/17 01:12:32;;;;;;;18.27;9.55;;;7.30;99.90;;;;;;5054099;28;20017;-61
2022/01/17 01:14:58;;;;;;;18.50;8.93;;;7.30;99.90;;;;;;5053754;28;20616;-61
2022/01/17 01:17:34;;;;;;;18.48;9.25;;;7.20;99.90;;;;;;5052655;28;20578;-61
2022/01/17 01:28:21;;;;;;;17.67;6.57;;;7.20;99.90;;;;;;5054225;28;20036;-60
2022/01/17 01:30:50;;;;;;;19.00;5.43;;;7.30;99.90;;;;;;5051207;28;20029;-61
2022/01/17 01:33:23;;;;;;;12.10;4.13;;;7.30;99.90;;;;;;5053288;28;20059;-61
2022/01/17 01:35:56;;;;;;;12.88;3.58;;;7.20;99.90;;;;;;5055400;28;20090;-61
2022/01/17 01:38:22;;;;;;;14.30;3.55;;;7.20;99.90;;;;;;5054755;28;20021;-60
2022/01/17 01:40:47;;;;;;;14.20;3.30;;;7.30;99.90;;;;;;5052089;28;20023;-61
2022/01/17 01:43:12;;;;;;;10.27;3.30;;;7.30;99.90;;;;;;5059510;28;20108;-61
2022/01/17 01:45:38;;;;;;;11.05;2.65;;;7.30;99.90;;;;;;5058124;28;20028;-61
2022/01/17 01:48:05;;;;;;;8.55;2.53;;;7.30;99.90;;;;;;5052007;28;20492;-61
2022/01/17 01:50:31;;;;;;;11.63;3.28;;;7.30;99.90;;;;;;5056624;28;20113;-61
2022/01/17 01:52:56;;;;;;;9.40;2.85;;;7.30;99.90;;;;;;5055420;28;20495;-61
2022/01/17 01:55:22;;;;;;;11.57;2.58;;;7.30;99.90;;;;;;5057146;28;20098;-61
2022/01/17 01:57:49;;;;;;;10.93;3.38;;;7.30;99.90;;;;;;5053889;28;20026;-60
2022/01/17 02:00:16;;;;;;;8.20;2.50;;;7.30;99.90;;;;;;5060607;28;20032;-61
2022/01/17 02:02:42;;;;;;;9.35;1.83;;;7.30;99.90;;;;;;5039973;28;20511;-61
2022/01/17 02:05:08;;;;;;;10.38;2.00;;;7.30;99.90;;;;;;5035695;28;20052;-61
2022/01/17 02:07:34;;;;;;;10.40;2.25;;;7.30;99.90;;;;;;5057203;28;20028;-61
2022/01/17 02:09:59;;;;;;;8.27;1.42;;;7.30;99.90;;;;;;5054113;28;20017;-61
2022/01/17 02:12:29;;;;;;;6.35;1.30;;;7.30;99.90;;;;;;5059692;28;20020;-61
2022/01/17 02:14:56;;;;;;;8.20;1.27;;;7.30;99.90;;;;;;5054348;28;20111;-61
2022/01/17 02:17:23;;;;;;;8.55;1.40;;;7.30;99.90;;;;;;5060640;28;20051;-60
2022/01/17 02:19:52;;;;;;;5.53;0.95;;;7.30;99.90;;;;;;5055747;28;20136;-61
2022/01/17 02:22:17;;;;;;;10.57;1.20;;;7.30;99.90;;;;;;5060323;28;20096;-61
2022/01/17 02:24:43;;;;;;;11.15;1.48;;;7.20;99.90;;;;;;5057040;28;20131;-61
2022/01/17 02:27:08;;;;;;;9.15;1.13;;;7.20;99.90;;;;;;5053497;28;20100;-61
2022/01/17 02:29:34;;;;;;;10.18;1.40;;;7.20;99.90;;;;;;5054045;28;20556;-61
2022/01/17 02:31:59;;;;;;;9.02;1.40;;;7.10;99.90;;;;;;5053811;28;20039;-60
2022/01/17 02:34:25;;;;;;;10.63;1.08;;;7.10;99.90;;;;;;5057005;28;20527;-61
2022/01/17 02:36:50;;;;;;;8.07;1.40;;;7.10;99.90;;;;;;5059207;28;20039;-61
2022/01/17 02:39:16;;;;;;;4.60;1.08;;;7.00;99.90;;;;;;5053894;28;20107;-60
2022/01/17 02:41:44;;;;;;;6.93;1.08;;;7.10;99.90;;;;;;5053602;28;20106;-61
2022/01/17 02:44:10;;;;;;;8.57;0.80;;;7.10;99.90;;;;;;5056191;28;20116;-60
2022/01/17 02:46:36;;;;;;;6.72;1.17;;;7.10;99.90;;;;;;5056779;28;20498;-61
2022/01/17 02:49:05;;;;;;;7.95;1.10;;;7.00;99.90;;;;;;5058904;28;20036;-61
2022/01/17 02:51:30;;;;;;;7.78;1.10;;;7.00;99.90;;;;;;5054007;28;20029;-60
2022/01/17 02:53:57;;;;;;;8.57;1.52;;;7.00;99.90;;;;;;5056534;28;20382;-61
2022/01/17 02:56:23;;;;;;;9.10;1.00;;;7.00;99.90;;;;;;5053646;28;20032;-61
2022/01/17 02:58:49;;;;;;;9.43;1.38;;;6.90;99.90;;;;;;5055957;28;20024;-61
2022/01/17 03:01:18;;;;;;;9.30;1.40;;;6.90;99.90;;;;;;5050942;28;20092;-61
2022/01/17 03:03:46;;;;;;;7.78;1.05;;;6.90;99.90;;;;;;5055780;28;20074;-60
2022/01/17 03:06:12;;;;;;;8.75;1.02;;;6.90;99.90;;;;;;5055102;28;20021;-60
2022/01/17 03:08:39;;;;;;;7.03;0.80;;;6.90;99.90;;;;;;5056200;28;20070;-61
2022/01/17 03:11:06;;;;;;;11.07;0.80;;;6.90;99.90;;;;;;5053193;28;20021;-61
2022/01/17 03:13:34;;;;;;;7.47;0.90;;;6.90;99.90;;;;;;5034040;28;20107;-61
2022/01/17 03:16:10;;;;;;;6.78;0.82;;;6.80;99.90;;;;;;5053973;28;20097;-60
2022/01/17 03:18:39;;;;;;;5.85;1.10;;;6.80;99.90;;;;;;5055283;28;20055;-60
2022/01/17 03:21:06;;;;;;;6.05;0.80;;;6.80;99.90;;;;;;5050321;28;20017;-61
2022/01/17 03:23:32;;;;;;;8.27;0.80;;;6.80;99.90;;;;;;5054850;28;20484;-60
2022/01/17 03:25:58;;;;;;;5.22;0.85;;;6.70;99.90;;;;;;5070963;28;20074;-60
2022/01/17 03:28:25;;;;;;;5.00;1.02;;;6.70;99.90;;;;;;5056162;28;20025;-61
2022/01/17 03:30:51;;;;;;;6.00;0.75;;;6.70;99.90;;;;;;5057295;28;20083;-61
2022/01/17 03:33:19;;;;;;;11.00;1.45;;;6.60;99.90;;;;;;5049994;28;20029;-61
2022/01/17 03:35:45;;;;;;;5.78;0.75;;;6.60;99.90;;;;;;5060846;28;20115;-61
2022/01/17 03:38:14;;;;;;;5.22;0.70;;;6.60;99.90;;;;;;5056857;28;20021;-61
2022/01/17 03:40:40;;;;;;;6.55;0.70;;;6.60;99.90;;;;;;5057878;28;20366;-61
2022/01/17 03:43:06;;;;;;;9.68;0.93;;;6.50;99.90;;;;;;5052722;28;20044;-61
2022/01/17 03:45:32;;;;;;;4.57;0.60;;;6.50;99.90;;;;;;5055175;28;20029;-61
2022/01/17 03:47:58;;;;;;;6.38;0.73;;;6.40;99.90;;;;;;5049583;28;20055;-60
2022/01/17 03:50:25;;;;;;;3.75;0.60;;;6.40;99.90;;;;;;5052322;28;20087;-61
2022/01/17 03:52:51;;;;;;;7.15;0.80;;;6.30;99.90;;;;;;5055372;28;20515;-61
2022/01/17 03:55:21;;;;;;;6.20;0.57;;;6.30;99.90;;;;;;5036508;28;20056;-60
2022/01/17 03:57:48;;;;;;;6.30;0.60;;;6.30;99.90;;;;;;5050741;28;20025;-61
2022/01/17 04:00:20;;;;;;;2.97;0.50;;;6.20;99.90;;;;;;5045672;28;20029;-61
2022/01/17 04:02:46;;;;;;;6.32;0.60;;;6.20;99.90;;;;;;5054880;28;20037;-61
2022/01/17 04:05:12;;;;;;;4.80;0.60;;;6.20;99.90;;;;;;5057871;28;20067;-61
2022/01/17 04:07:37;;;;;;;5.47;0.52;;;6.10;99.90;;;;;;5055027;28;20036;-61
2022/01/17 04:10:04;;;;;;;5.60;0.60;;;6.00;99.90;;;;;;5051839;28;20017;-61
2022/01/17 04:12:29;;;;;;;4.38;0.70;;;6.00;99.90;;;;;;5052132;28;20595;-61
2022/01/17 04:14:56;;;;;;;4.45;0.50;;;6.00;99.90;;;;;;5048906;28;20119;-60
2022/01/17 04:17:27;;;;;;;5.60;0.80;;;5.90;99.90;;;;;;5055060;28;20562;-61
2022/01/17 04:19:59;;;;;;;2.75;0.50;;;5.90;99.90;;;;;;5057330;28;20083;-61
2022/01/17 04:22:25;;;;;;;5.47;0.88;;;5.80;99.90;;;;;;5049241;28;20480;-61
2022/01/17 04:24:51;;;;;;;5.72;0.57;;;5.80;99.90;;;;;;5039283;28;20409;-61
2022/01/17 04:27:17;;;;;;;7.82;0.90;;;5.70;99.90;;;;;;5057437;28;20048;-61
2022/01/17 04:29:42;;;;;;;7.28;0.90;;;5.70;99.90;;;;;;5049053;28;20021;-61
2022/01/17 04:32:08;;;;;;;5.72;0.63;;;5.70;99.90;;;;;;5054171;28;20104;-60
2022/01/17 04:34:34;;;;;;;7.00;0.65;;;5.70;99.90;;;;;;5051668;28;20116;-60
2022/01/17 04:37:00;;;;;;;4.80;0.70;;;5.60;99.90;;;;;;5051684;28;21459;-60
2022/01/17 04:39:26;;;;;;;5.40;0.88;;;5.60;99.90;;;;;;5054387;28;20534;-60
2022/01/17 04:41:51;;;;;;;6.53;0.88;;;5.60;99.90;;;;;;5062657;28;20021;-60
2022/01/17 04:47:01;;;;;;;9.02;1.25;;;5.60;99.90;;;;;;5056974;28;20031;-60
2022/01/17 04:49:26;;;;;;;8.00;1.33;;;5.60;99.90;;;;;;5056874;28;20032;-61
2022/01/17 04:51:54;;;;;;;4.93;1.27;;;5.60;99.90;;;;;;5054291;28;20094;-60
2022/01/17 04:54:39;;;;;;;6.93;1.98;;;5.60;99.90;;;;;;5056893;28;20822;-60
2022/01/17 04:57:05;;;;;;;7.13;1.13;;;5.60;99.90;;;;;;5057117;28;20028;-61
2022/01/17 04:59:30;;;;;;;6.88;1.25;;;5.60;99.90;;;;;;5054201;28;20028;-61
2022/01/17 05:01:56;;;;;;;7.57;1.42;;;5.60;99.90;;;;;;5048421;28;20045;-60
2022/01/17 05:04:21;;;;;;;9.80;2.80;;;5.60;99.90;;;;;;5054111;28;20051;-60
2022/01/17 05:06:47;;;;;;;4.18;0.77;;;5.60;99.90;;;;;;5054968;28;20480;-60
2022/01/17 05:09:12;;;;;;;5.15;1.05;;;5.50;99.90;;;;;;5054074;28;20111;-60
2022/01/17 05:11:39;;;;;;;7.45;1.20;;;5.50;99.90;;;;;;5048619;28;20029;-61
2022/01/17 05:14:05;;;;;;;3.85;0.95;;;5.50;99.90;;;;;;5056210;28;20021;-60
2022/01/17 05:16:35;;;;;;;5.90;0.98;;;5.50;99.90;;;;;;5061765;28;20021;-60
2022/01/17 05:21:45;;;;;;;3.78;0.90;;;5.40;99.90;;;;;;5058538;28;20033;-60
2022/01/17 05:24:11;;;;;;;5.07;1.05;;;5.40;99.90;;;;;;5060449;28;20427;-60
2022/01/17 05:26:37;;;;;;;6.00;0.90;;;5.40;99.90;;;;;;5058301;28;20028;-60
2022/01/17 05:29:02;;;;;;;5.05;1.00;;;5.30;99.90;;;;;;5055255;28;20397;-60
2022/01/17 05:31:28;;;;;;;5.57;1.02;;;5.30;99.90;;;;;;5057535;28;20032;-61
2022/01/17 05:33:53;;;;;;;4.20;0.93;;;5.20;99.90;;;;;;5057537;28;20461;-61
2022/01/17 05:36:19;;;;;;;6.07;1.10;;;5.20;99.90;;;;;;5057634;28;20029;-60
2022/01/17 05:38:44;;;;;;;4.88;1.23;;;5.20;99.90;;;;;;5058282;28;20384;-61
2022/01/17 05:41:10;;;;;;;6.40;1.40;;;5.10;99.90;;;;;;5048727;28;20025;-61
2022/01/17 05:43:35;;;;;;;6.57;1.50;;;5.10;99.90;;;;;;5056258;28;20021;-61
2022/01/17 05:46:01;;;;;;;5.10;1.73;;;5.10;99.90;;;;;;5060352;28;20032;-60
2022/01/17 05:48:26;;;;;;;6.55;1.63;;;5.00;99.90;;;;;;5057163;28;20025;-61
2022/01/17 05:51:15;;;;;;;7.40;1.92;;;5.00;99.90;;;;;;5041169;28;20028;-61
2022/01/17 05:53:41;;;;;;;6.97;1.80;;;5.00;99.90;;;;;;5060799;28;20029;-61
2022/01/17 05:56:07;;;;;;;8.50;2.20;;;5.00;99.90;;;;;;5054609;28;20025;-61
2022/01/17 05:58:32;;;;;;;7.78;2.40;;;5.00;99.90;;;;;;5056244;28;20029;-61
2022/01/17 06:00:59;;;;;;;11.43;2.97;;;5.00;99.90;;;;;;5061086;28;20025;-61
2022/01/17 06:03:25;;;;;;;8.07;2.47;;;5.00;99.90;;;;;;5057009;28;20025;-60
2022/01/17 06:05:52;;;;;;;11.75;3.67;;;5.00;99.90;;;;;;5044123;28;20033;-61
2022/01/17 06:08:17;;;;;;;13.48;3.55;;;5.00;99.90;;;;;;5061988;28;20032;-61
2022/01/17 06:10:43;;;;;;;9.52;3.30;;;5.00;99.90;;;;;;5057248;28;20052;-61
2022/01/17 06:13:08;;;;;;;11.95;3.50;;;4.90;99.90;;;;;;5054676;28;20365;-61
2022/01/17 06:15:34;;;;;;;12.52;3.67;;;4.90;99.90;;;;;;5054037;28;20445;-61
2022/01/17 06:17:59;;;;;;;8.88;4.55;;;4.90;99.90;;;;;;5059916;28;20051;-61
2022/01/17 06:20:25;;;;;;;8.73;4.05;;;4.90;99.90;;;;;;5051593;28;20021;-60
2022/01/17 06:22:51;;;;;;;17.05;5.20;;;4.90;99.90;;;;;;5054130;28;20819;-60
2022/01/17 06:25:16;;;;;;;11.05;4.95;;;4.90;99.90;;;;;;5059526;28;20071;-60
2022/01/17 06:27:42;;;;;;;16.15;5.75;;;4.90;99.90;;;;;;5059543;28;20031;-60
2022/01/17 06:30:08;;;;;;;9.52;4.97;;;5.00;99.90;;;;;;5055690;28;20020;-60
2022/01/17 06:32:34;;;;;;;11.20;5.13;;;4.90;99.90;;;;;;5055039;28;20100;-60
2022/01/17 06:35:03;;;;;;;13.43;5.75;;;5.00;99.90;;;;;;5054614;28;20036;-60
2022/01/17 06:37:29;;;;;;;16.77;5.70;;;5.00;99.90;;;;;;5053998;28;20013;-60
2022/01/17 06:40:03;;;;;;;16.60;5.82;;;5.00;99.90;;;;;;5053335;28;20056;-60
2022/01/17 06:42:28;;;;;;;12.70;5.53;;;5.00;99.90;;;;;;5057332;28;20063;-60
2022/01/17 06:44:54;;;;;;;12.48;6.35;;;5.00;99.90;;;;;;5073417;28;20060;-60
2022/01/17 06:47:20;;;;;;;14.93;6.90;;;4.90;99.90;;;;;;5070746;28;20028;-60
2022/01/17 06:49:45;;;;;;;18.77;7.93;;;4.90;99.90;;;;;;5074414;28;20028;-60
2022/01/17 06:52:11;;;;;;;15.70;7.60;;;4.90;99.90;;;;;;5074924;28;20116;-59
2022/01/17 06:54:36;;;;;;;14.20;7.15;;;4.90;99.90;;;;;;5074680;28;20028;-60
2022/01/17 06:57:02;;;;;;;17.30;8.77;;;4.90;99.90;;;;;;5074847;28;20480;-60
2022/01/17 06:59:28;;;;;;;13.30;7.55;;;4.90;99.90;;;;;;5074589;28;20028;-60
2022/01/17 07:01:53;;;;;;;14.32;8.70;;;4.90;99.90;;;;;;5074775;28;20062;-60
2022/01/17 07:04:19;;;;;;;16.70;8.80;;;4.90;99.90;;;;;;5074404;28;20032;-60
2022/01/17 07:06:44;;;;;;;19.02;9.85;;;4.90;99.90;;;;;;5074552;28;20028;-60
2022/01/17 07:09:14;;;;;;;18.50;9.00;;;4.90;99.90;;;;;;5073829;28;20031;-60
2022/01/17 07:11:40;;;;;;;;;;;4.90;99.90;;;;;;5073526;28;20376;-60
2022/01/17 07:14:08;;;;;;;19.98;10.20;;;4.90;99.90;;;;;;5074168;28;19915;-59
2022/01/17 07:16:36;;;;;;;19.35;10.18;;;4.80;99.90;;;;;;5074368;28;20021;-60
2022/01/17 07:19:02;;;;;;;19.73;10.32;;;4.90;99.90;;;;;;5074225;28;20029;-59
2022/01/17 07:21:28;;;;;;;23.17;10.48;;;4.90;99.90;;;;;;5064980;28;20025;-60
2022/01/17 07:23:54;;;;;;;23.60;11.95;;;4.90;99.90;;;;;;5053992;28;20127;-59
2022/01/17 07:26:19;;;;;;;23.35;12.43;;;4.90;99.90;;;;;;5054206;28;20460;-59
2022/01/17 07:28:45;;;;;;;23.50;12.07;;;5.00;99.90;;;;;;5054187;28;20022;-59
2022/01/17 07:31:10;;;;;;;22.08;12.75;;;5.10;99.90;;;;;;5053469;28;20025;-60
2022/01/17 07:33:37;;;;;;;23.17;13.00;;;5.10;99.90;;;;;;5053991;28;20037;-60
2022/01/17 07:36:05;;;;;;;21.65;13.05;;;5.10;99.90;;;;;;5053753;28;20477;-59
2022/01/17 07:38:31;;;;;;;25.70;14.13;;;5.20;99.90;;;;;;5054341;28;20032;-60
2022/01/17 07:40:56;;;;;;;23.02;14.13;;;5.20;99.90;;;;;;5060138;28;20107;-60
2022/01/17 07:43:22;;;;;;;27.80;14.75;;;5.20;99.90;;;;;;5055107;28;20399;-60
2022/01/17 07:46:03;;;;;;;27.08;14.70;;;5.20;99.90;;;;;;5038638;28;20538;-60
2022/01/17 07:48:56;;;;;;;33.30;16.35;;;5.20;99.90;;;;;;5070115;28;20111;-61
2022/01/17 07:51:27;;;;;;;25.65;16.38;;;5.30;99.90;;;;;;5053304;28;20063;-60
2022/01/17 07:53:54;;;;;;;26.35;16.38;;;5.30;99.90;;;;;;5061838;28;20024;-61
2022/01/17 07:56:20;;;;;;;25.80;16.67;;;5.30;99.90;;;;;;5072588;28;20055;-60
2022/01/17 07:58:46;;;;;;;30.98;18.15;;;5.40;99.90;;;;;;5073661;28;20075;-61
2022/01/17 08:01:11;;;;;;;28.48;17.02;;;5.40;99.90;;;;;;5071548;28;20024;-60
2022/01/17 08:03:37;;;;;;;28.83;17.98;;;5.40;99.90;;;;;;5069777;28;20522;-60
2022/01/17 08:06:03;;;;;;;31.38;18.55;;;5.40;99.90;;;;;;5071255;28;20032;-60
2022/01/17 08:08:29;;;;;;;29.30;18.08;;;5.50;99.90;;;;;;5072972;28;20047;-60
2022/01/17 08:10:54;;;;;;;31.02;18.25;;;5.50;99.90;;;;;;5072958;28;20528;-60
2022/01/17 08:13:20;;;;;;;24.75;16.95;;;5.50;99.90;;;;;;5072843;28;20067;-60
2022/01/17 08:15:46;;;;;;;28.90;17.60;;;5.50;99.90;;;;;;5072875;28;20025;-60
2022/01/17 08:18:13;;;;;;;29.52;17.23;;;5.50;99.90;;;;;;5073011;28;20518;-60
2022/01/17 08:20:54;;;;;;;29.02;17.60;;;5.50;99.90;;;;;;5072931;28;20025;-60
2022/01/17 08:23:20;;;;;;;30.35;18.67;;;5.60;99.90;;;;;;5071955;28;20052;-60
2022/01/17 08:25:45;;;;;;;29.65;18.88;;;5.60;99.90;;;;;;5054747;28;20094;-60
2022/01/17 08:28:11;;;;;;;32.75;18.90;;;5.60;99.90;;;;;;5072080;28;20126;-60
2022/01/17 08:30:37;;;;;;;32.10;18.83;;;5.60;99.90;;;;;;5071900;28;20020;-60
2022/01/17 08:33:16;;;;;;;32.38;18.98;;;5.70;99.90;;;;;;5072126;28;20029;-60
2022/01/17 08:35:42;;;;;;;32.88;20.15;;;5.70;99.90;;;;;;5067862;28;20043;-60
2022/01/17 08:38:58;;;;;;;35.00;21.15;;;5.70;99.90;;;;;;5052780;28;20029;-60
2022/01/17 08:41:37;;;;;;;32.30;19.05;;;5.70;99.90;;;;;;5045606;28;20472;-60
2022/01/17 08:44:38;;;;;;;30.45;18.30;;;5.80;99.90;;;;;;5054550;28;20116;-60
2022/01/17 08:47:04;;;;;;;37.28;19.20;;;5.80;99.90;;;;;;5045313;28;20032;-60
2022/01/17 08:49:30;;;;;;;31.95;18.25;;;5.80;99.90;;;;;;5072719;28;20021;-59
2022/01/17 08:51:58;;;;;;;27.35;18.05;;;5.80;99.90;;;;;;5068423;28;20125;-60
2022/01/17 08:54:24;;;;;;;31.23;18.83;;;5.90;99.90;;;;;;5070773;28;20043;-59
2022/01/17 08:56:50;;;;;;;29.08;17.90;;;5.90;99.90;;;;;;5069344;28;20037;-59
2022/01/17 08:59:15;;;;;;;34.65;17.75;;;6.00;99.90;;;;;;5054784;28;20028;-60
2022/01/17 09:01:41;;;;;;;26.25;16.67;;;6.20;99.90;;;;;;5054529;28;20021;-59
2022/01/17 09:04:07;;;;;;;27.85;17.05;;;6.20;99.90;;;;;;5072461;28;20024;-60
2022/01/17 09:06:32;;;;;;;29.52;16.42;;;6.30;99.90;;;;;;5054160;28;20056;-60
2022/01/17 09:08:58;;;;;;;33.15;18.15;;;6.30;99.90;;;;;;5054461;28;20020;-60
2022/01/17 09:11:23;;;;;;;28.17;17.08;;;6.30;99.90;;;;;;5070827;28;20024;-60
2022/01/17 09:13:49;;;;;;;29.65;16.42;;;6.40;99.90;;;;;;5072318;28;20048;-60
2022/01/17 09:16:23;;;;;;;34.10;15.05;;;6.40;99.90;;;;;;5072041;28;20055;-60
2022/01/17 09:19:35;;;;;;;;;;;;;;;;;;;;;
2022/01/17 09:22:02;;;;;;;25.10;14.65;;;6.40;99.90;;;;;;5072245;28;20472;-60
2022/01/17 09:24:28;;;;;;;24.35;13.18;;;6.40;99.90;;;;;;5063583;28;20049;-60
2022/01/17 09:27:15;;;;;;;30.20;14.50;;;6.40;99.90;;;;;;5052129;28;20032;-60
2022/01/17 09:29:41;;;;;;;25.65;11.68;;;6.50;99.90;;;;;;5033328;28;20041;-60
2022/01/17 09:32:08;;;;;;;20.77;11.10;;;6.50;99.90;;;;;;5051265;28;20495;-60
2022/01/17 09:35:09;;;;;;;21.08;10.73;;;6.50;99.90;;;;;;5051578;28;20120;-60
2022/01/17 09:40:44;;;;;;;21.48;10.70;;;6.60;99.90;;;;;;5052063;28;20029;-60
2022/01/17 09:44:04;;;;;;;22.52;9.02;;;6.60;99.90;;;;;;5051523;28;20037;-60
2022/01/17 09:46:35;;;;;;;20.42;9.13;;;6.70;99.90;;;;;;5043966;28;20417;-60
2022/01/17 09:49:14;;;;;;;20.90;9.02;;;6.60;99.90;;;;;;5052006;28;20480;-60
2022/01/17 09:54:21;;;;;;;20.48;8.50;;;6.70;99.90;;;;;;5054160;28;20116;-60
2022/01/17 09:56:50;;;;;;;18.13;8.00;;;6.70;99.90;;;;;;5052310;28;20025;-60
2022/01/17 09:59:16;;;;;;;18.10;7.35;;;6.80;99.90;;;;;;5055795;28;20040;-60
2022/01/17 10:01:42;;;;;;;20.42;7.43;;;6.80;99.90;;;;;;5055071;28;20142;-60
2022/01/17 10:04:09;;;;;;;15.60;6.88;;;6.90;99.90;;;;;;5055582;28;20381;-60
2022/01/17 10:06:35;;;;;;;16.88;7.00;;;6.90;99.90;;;;;;5055634;28;20469;-60
2022/01/17 10:09:17;;;;;;;15.43;6.47;;;6.90;99.90;;;;;;5055296;28;20500;-60
2022/01/17 10:11:59;;;;;;;17.48;6.47;;;7.00;99.90;;;;;;5055673;28;20492;-60
2022/01/17 10:14:27;;;;;;;20.20;6.40;;;7.00;99.90;;;;;;5054550;28;20029;-60
2022/01/17 10:16:53;;;;;;;21.52;7.30;;;7.10;99.90;;;;;;5054079;28;20028;-60
2022/01/17 10:19:21;;;;;;;18.48;5.75;;;7.10;99.90;;;;;;5055084;28;20389;-60
2022/01/17 10:21:51;;;;;;;10.95;6.18;;;7.10;99.90;;;;;;5055334;28;20021;-60
2022/01/17 10:27:10;;;;;;;17.17;5.55;;;7.20;99.90;;;;;;5070534;28;20480;-60
2022/01/17 10:35:36;;;;;;;16.27;3.75;;;7.20;99.90;;;;;;5055012;28;20079;-60
2022/01/17 10:38:20;;;;;;;12.40;4.07;;;7.30;99.90;;;;;;5054715;28;20519;-60
2022/01/17 10:40:53;;;;;;;17.50;4.55;;;7.30;99.90;;;;;;5054906;28;20071;-60
2022/01/17 10:43:22;;;;;;;11.95;4.28;;;7.30;99.90;;;;;;5054707;28;20440;-60
2022/01/17 10:45:48;;;;;;;17.23;4.20;;;7.30;99.90;;;;;;5054964;28;20049;-60
2022/01/17 10:48:34;;;;;;;15.55;4.30;;;7.30;99.90;;;;;;5054631;28;20029;-60
2022/01/17 10:51:00;;;;;;;14.23;3.83;;;7.40;99.90;;;;;;5054846;28;20017;-61
2022/01/17 10:53:25;;;;;;;15.20;4.00;;;7.40;99.90;;;;;;5054602;28;20021;-60
2022/01/17 10:56:06;;;;;;;15.77;4.18;;;7.40;99.90;;;;;;5054631;28;20029;-60
2022/01/17 10:58:33;;;;;;;20.95;4.25;;;7.50;99.90;;;;;;5054574;28;20489;-60
2022/01/17 11:01:02;;;;;;;19.92;4.13;;;7.50;99.90;;;;;;5054700;28;20078;-60
2022/01/17 11:03:30;;;;;;;20.48;4.32;;;7.50;99.90;;;;;;5054527;28;20124;-60
2022/01/17 11:05:58;;;;;;;17.15;3.70;;;7.50;99.90;;;;;;5065431;28;20032;-61
2022/01/17 11:08:28;;;;;;;21.33;5.20;;;7.60;99.90;;;;;;5074133;28;20116;-60
2022/01/17 11:10:57;;;;;;;17.08;4.95;;;7.60;99.90;;;;;;5074489;28;20028;-60
2022/01/17 11:13:54;;;;;;;20.25;3.65;;;7.60;99.90;;;;;;5074278;28;20388;-60
2022/01/17 11:16:21;;;;;;;21.23;4.07;;;7.70;99.90;;;;;;5069509;28;20078;-60
2022/01/17 11:18:58;;;;;;;17.33;4.55;;;7.70;99.90;;;;;;5070292;28;20032;-60
2022/01/17 11:21:24;;;;;;;14.38;3.40;;;7.70;99.90;;;;;;5057967;28;20039;-60
2022/01/17 11:24:02;;;;;;;19.77;3.88;;;7.70;99.90;;;;;;5076901;28;20030;-60
2022/01/17 11:29:42;;;;;;;15.02;3.97;;;7.90;99.90;;;;;;5059281;28;20404;-60
2022/01/17 11:32:08;;;;;;;17.60;4.05;;;7.90;99.90;;;;;;5055596;28;20025;-61
2022/01/17 11:34:34;;;;;;;18.20;3.13;;;7.90;99.90;;;;;;5073169;28;20472;-60
2022/01/17 11:37:00;;;;;;;16.58;3.70;;;7.90;99.90;;;;;;5073391;28;20099;-60
2022/01/17 11:39:31;;;;;;;23.73;3.80;;;8.00;99.90;;;;;;5072885;28;20926;-61
2022/01/17 11:41:57;;;;;;;19.85;4.80;;;8.00;99.90;;;;;;5072932;28;20033;-60
2022/01/17 11:44:40;;;;;;;21.50;3.28;;;8.00;99.90;;;;;;5072174;28;20078;-61
2022/01/17 11:47:05;;;;;;;22.95;4.90;;;8.10;99.90;;;;;;5056872;28;20422;-61
2022/01/17 11:49:35;;;;;;;22.10;3.88;;;8.10;99.90;;;;;;5072921;28;20111;-61
2022/01/17 11:52:01;;;;;;;15.43;3.40;;;8.20;99.90;;;;;;5072884;28;20031;-60
2022/01/17 11:54:28;;;;;;;18.60;3.53;;;8.30;99.90;;;;;;5072619;28;20040;-61
2022/01/17 11:57:05;;;;;;;15.20;4.00;;;8.30;99.90;;;;;;5072948;28;20467;-61
2022/01/17 12:00:32;;;;;;;12.65;3.08;;;8.30;99.90;;;;;;5069560;28;20021;-61
2022/01/17 12:03:19;;;;;;;24.38;4.13;;;8.40;99.90;;;;;;5009218;28;20033;-62
2022/01/17 12:05:44;;;;;;;15.88;3.25;;;8.40;99.90;;;;;;5072373;28;20044;-62
2022/01/17 12:08:14;;;;;;;19.45;3.33;;;8.40;99.90;;;;;;5065899;28;20024;-61
2022/01/17 12:10:46;;;;;;;21.03;4.03;;;8.40;99.90;;;;;;5062014;28;20106;-62
2022/01/17 12:13:17;;;;;;;15.95;3.10;;;8.40;99.90;;;;;;5067587;28;20401;-62
2022/01/17 12:15:55;;;;;;;20.95;4.00;;;8.40;99.90;;;;;;5068729;28;20020;-62
2022/01/17 12:18:43;;;;;;;19.65;3.92;;;8.40;99.90;;;;;;5071184;28;20480;-62
2022/01/17 12:21:36;;;;;;;11.95;3.03;;;8.50;99.90;;;;;;5070323;28;20024;-61
2022/01/17 12:24:17;;;;;;;19.27;6.50;;;8.50;99.90;;;;;;5066596;28;20451;-62
2022/01/17 12:27:16;;;;;;;11.40;2.17;;;8.50;99.90;;;;;;5068843;28;20025;-61
2022/01/17 12:29:44;;;;;;;13.60;2.72;;;8.50;99.90;;;;;;5066900;28;20032;-62
2022/01/17 12:32:24;;;;;;;18.98;3.35;;;8.50;99.90;;;;;;5068897;28;20017;-62
2022/01/17 12:34:53;;;;;;;18.52;3.45;;;8.60;99.90;;;;;;5070587;28;20485;-62
2022/01/17 12:37:45;;;;;;;13.57;2.20;;;8.60;99.90;;;;;;5067965;28;20115;-62
2022/01/17 12:40:21;;;;;;;15.13;2.28;;;8.70;99.90;;;;;;5072306;28;20038;-62
2022/01/17 12:43:15;;;;;;;15.55;2.67;;;8.60;99.90;;;;;;5072470;28;20028;-61
2022/01/17 12:45:48;;;;;;;20.70;3.75;;;8.70;99.90;;;;;;5072664;28;20099;-62
2022/01/17 12:48:20;;;;;;;15.50;3.00;;;8.70;99.90;;;;;;5072583;28;20417;-62
2022/01/17 12:50:47;;;;;;;15.80;2.50;;;8.80;99.90;;;;;;5072763;28;20030;-61
2022/01/17 12:53:16;;;;;;;18.40;3.67;;;8.80;99.90;;;;;;5072675;28;20027;-62
2022/01/17 12:55:43;;;;;;;15.10;2.30;;;8.80;99.90;;;;;;5072301;28;20027;-62
2022/01/17 12:58:41;;;;;;;20.23;3.03;;;8.80;99.90;;;;;;5072496;28;20078;-62
2022/01/17 13:01:11;;;;;;;18.95;2.80;;;8.90;99.90;;;;;;5067462;28;20047;-62
2022/01/17 13:03:38;;;;;;;;;;;9.00;99.90;;;;;;5072962;28;20047;-62
2022/01/17 13:06:06;;;;;;;17.52;2.65;;;8.90;99.90;;;;;;5072488;28;19904;-62
2022/01/17 13:08:32;;;;;;;19.27;2.55;;;9.00;99.90;;;;;;5054439;28;20082;-62
2022/01/17 13:11:22;;;;;;;17.45;2.65;;;9.00;99.90;;;;;;5072510;28;20033;-62
2022/01/17 13:14:21;;;;;;;15.27;2.25;;;9.10;99.90;;;;;;5053117;28;20040;-62
2022/01/17 13:17:16;;;;;;;17.30;3.10;;;9.20;99.90;;;;;;5040924;28;20115;-62
2022/01/17 13:19:41;;;;;;;14.82;3.17;;;9.20;99.90;;;;;;5092327;28;20035;-62
2022/01/17 13:22:07;;;;;;;16.58;2.92;;;9.20;99.90;;;;;;5089082;28;20024;-62
2022/01/17 13:24:35;;;;;;;16.85;2.35;;;9.20;99.90;;;;;;5092252;28;20123;-62
2022/01/17 13:27:09;;;;;;;21.15;3.90;;;9.30;99.90;;;;;;5082910;28;20020;-61
2022/01/17 13:29:39;;;;;;;15.95;2.40;;;9.30;99.90;;;;;;5074476;28;20426;-62
2022/01/17 13:32:08;;;;;;;19.77;2.72;;;9.30;99.90;;;;;;5067954;28;20070;-62
2022/01/17 13:34:35;;;;;;;17.48;2.60;;;9.40;99.90;;;;;;5070726;28;20480;-62